Time;durP1;ratioP1;P1;durP2;ratioP2;P2;SDS_P1;SDS_P2;PMS_P1;PMS_P2;Temp;Humidity;BMP_temperature;BMP_pressure;BME280_temperature;BME280_humidity;BME280_pressure;Samples;Min_cycle;Max_cycle;Signal;HPM_P1;HPM_P2
2024/01/09 00:00:49;;;;;;;11.80;6.68;;;-3274.30;69.50;;;;;;5013120;28;20033;-79
2024/01/09 00:03:15;;;;;;;13.65;6.68;;;-3274.40;69.70;;;;;;5019968;28;20064;-80
2024/01/09 00:05:40;;;;;;;13.95;7.50;;;-3274.30;69.60;;;;;;5017016;28;20061;-79
2024/01/09 00:08:06;;;;;;;11.73;6.68;;;-3274.30;69.50;;;;;;5020309;28;20529;-79
2024/01/09 00:10:32;;;;;;;10.93;6.18;;;-3274.30;69.60;;;;;;5024897;28;20462;-80
2024/01/09 00:12:58;;;;;;;14.38;6.93;;;-3274.30;69.70;;;;;;5015478;28;20037;-79
2024/01/09 00:15:24;;;;;;;11.50;6.55;;;-3274.30;69.80;;;;;;5017151;28;20117;-80
2024/01/09 00:17:50;;;;;;;10.95;6.00;;;-3274.30;70.10;;;;;;5020129;28;20263;-80
2024/01/09 00:20:16;;;;;;;12.60;7.20;;;-3274.30;69.90;;;;;;5016578;28;20376;-80
2024/01/09 00:22:42;;;;;;;11.18;6.28;;;-3274.30;69.60;;;;;;5017466;28;20037;-80
2024/01/09 00:25:08;;;;;;;12.00;6.40;;;-3274.30;69.80;;;;;;5041498;28;20013;-80
2024/01/09 00:27:34;;;;;;;14.38;7.50;;;-3274.30;69.00;;;;;;5011722;28;20025;-80
2024/01/09 00:30:00;;;;;;;11.50;7.00;;;-3274.30;69.60;;;;;;5033142;28;20609;-79
2024/01/09 00:32:27;;;;;;;13.50;6.78;;;-3274.30;69.50;;;;;;5014710;28;20044;-80
2024/01/09 00:34:52;;;;;;;11.50;5.85;;;-3274.30;69.30;;;;;;5018442;28;20025;-79
2024/01/09 00:37:18;;;;;;;12.90;6.88;;;-3274.30;69.40;;;;;;5013547;28;20025;-80
2024/01/09 00:39:44;;;;;;;13.63;6.88;;;-3274.30;69.80;;;;;;5019489;28;20116;-79
2024/01/09 00:42:09;;;;;;;13.35;6.97;;;-3274.30;69.50;;;;;;5019071;28;20025;-79
2024/01/09 00:44:35;;;;;;;11.80;7.20;;;-3274.30;69.80;;;;;;5012834;28;20030;-79
2024/01/09 00:47:01;;;;;;;12.07;6.50;;;-3274.30;69.80;;;;;;5014393;28;20032;-80
2024/01/09 00:49:26;;;;;;;11.13;7.03;;;-3274.20;70.10;;;;;;5018954;28;20374;-80
2024/01/09 00:51:52;;;;;;;12.50;6.22;;;-3274.30;70.10;;;;;;5012294;28;20355;-79
2024/01/09 00:54:19;;;;;;;11.75;6.50;;;-3274.30;70.00;;;;;;5021802;28;20037;-79
2024/01/09 00:56:45;;;;;;;11.30;6.75;;;-3274.30;69.90;;;;;;5015221;28;20301;-79
2024/01/09 00:59:10;;;;;;;12.68;6.82;;;-3274.30;69.90;;;;;;5016611;28;20091;-80
2024/01/09 01:01:36;;;;;;;13.00;7.13;;;-3274.30;70.10;;;;;;5017641;28;20383;-80
2024/01/09 01:04:02;;;;;;;12.52;6.80;;;-3274.30;70.00;;;;;;5014568;28;20099;-79
2024/01/09 01:06:27;;;;;;;11.57;6.50;;;-3274.20;70.30;;;;;;5016754;28;20110;-79
2024/01/09 01:08:53;;;;;;;11.05;6.15;;;-3274.30;70.40;;;;;;5021249;28;20618;-79
2024/01/09 01:11:18;;;;;;;11.32;6.32;;;-3274.20;70.50;;;;;;5013529;28;20028;-79
2024/01/09 01:13:44;;;;;;;12.13;7.30;;;-3274.20;70.50;;;;;;5016630;28;20131;-80
2024/01/09 01:16:10;;;;;;;11.63;5.85;;;-3274.20;70.50;;;;;;5017473;28;20030;-80
2024/01/09 01:18:35;;;;;;;12.10;6.82;;;-3274.10;70.40;;;;;;5017944;28;20390;-79
2024/01/09 01:21:01;;;;;;;12.93;6.75;;;-3274.20;70.40;;;;;;5013544;28;20025;-79
2024/01/09 01:23:26;;;;;;;11.63;6.18;;;-3274.20;70.60;;;;;;5031541;28;20029;-80
2024/01/09 01:25:52;;;;;;;12.25;7.30;;;-3274.20;70.70;;;;;;5015912;28;20017;-80
2024/01/09 01:28:18;;;;;;;12.63;7.05;;;-3274.20;70.80;;;;;;5035370;28;20125;-80
2024/01/09 01:30:44;;;;;;;12.73;7.35;;;-3274.20;70.90;;;;;;5018503;28;20423;-79
2024/01/09 01:33:09;;;;;;;12.68;6.60;;;-3274.10;71.10;;;;;;5019408;28;20042;-79
2024/01/09 01:35:35;;;;;;;12.40;6.35;;;-3274.10;70.90;;;;;;5011324;28;20494;-79
2024/01/09 01:38:01;;;;;;;11.80;7.05;;;-3274.10;71.00;;;;;;5019149;28;20064;-79
2024/01/09 01:40:26;;;;;;;11.40;7.07;;;-3274.10;71.10;;;;;;5014193;28;20021;-81
2024/01/09 01:42:56;;;;;;;13.02;6.72;;;-3274.10;71.40;;;;;;5021181;28;20046;-80
2024/01/09 01:45:23;;;;;;;11.30;6.82;;;-3274.00;71.40;;;;;;5010558;28;20048;-80
2024/01/09 01:47:49;;;;;;;17.58;7.25;;;-3274.00;71.20;;;;;;5015031;28;20025;-80
2024/01/09 01:50:15;;;;;;;14.60;6.75;;;-3274.10;71.30;;;;;;5022003;28;20029;-80
2024/01/09 01:52:43;;;;;;;11.70;6.78;;;-3274.00;71.10;;;;;;5024893;28;20063;-80
2024/01/09 01:55:10;;;;;;;11.02;6.78;;;-3274.00;71.30;;;;;;5022205;28;20025;-81
2024/01/09 01:57:37;;;;;;;11.57;6.97;;;-3274.00;71.20;;;;;;5026670;28;20065;-81
2024/01/09 02:00:04;;;;;;;11.88;7.05;;;-3274.00;71.30;;;;;;5022651;28;20017;-81
2024/01/09 02:02:31;;;;;;;12.30;6.18;;;-3274.00;71.20;;;;;;5022859;28;20096;-80
2024/01/09 02:04:57;;;;;;;11.27;6.40;;;-3274.00;71.40;;;;;;5018456;28;20022;-80
2024/01/09 02:07:26;;;;;;;12.18;6.45;;;-3274.00;71.10;;;;;;5020617;28;20104;-80
2024/01/09 02:09:53;;;;;;;13.38;6.95;;;-3274.00;70.90;;;;;;5022874;28;20029;-81
2024/01/09 02:12:19;;;;;;;10.73;6.13;;;-3274.00;71.00;;;;;;5015918;28;20403;-80
2024/01/09 02:14:46;;;;;;;13.00;7.10;;;-3274.00;71.10;;;;;;5007329;28;20022;-81
2024/01/09 02:17:12;;;;;;;10.93;6.43;;;-3274.00;71.20;;;;;;5015917;28;20544;-80
2024/01/09 02:19:38;;;;;;;10.88;6.25;;;-3274.00;71.40;;;;;;5010614;28;20505;-81
2024/01/09 02:22:03;;;;;;;13.27;6.93;;;-3274.00;71.30;;;;;;5017295;28;20017;-80
2024/01/09 02:24:29;;;;;;;13.40;7.95;;;-3274.00;71.30;;;;;;5008303;28;20483;-80
2024/01/09 02:27:10;;;;;;;11.23;6.75;;;-3274.00;71.60;;;;;;5020378;28;20033;-81
2024/01/09 02:29:45;;;;;;;11.90;6.45;;;-3274.00;71.60;;;;;;5005605;28;20022;-81
2024/01/09 02:32:11;;;;;;;11.23;6.43;;;-3274.00;71.50;;;;;;5015799;28;20049;-80
2024/01/09 02:34:38;;;;;;;12.43;6.53;;;-3273.90;71.60;;;;;;5012120;28;20038;-80
2024/01/09 02:37:03;;;;;;;12.40;6.90;;;-3273.90;71.70;;;;;;5022371;28;20023;-81
2024/01/09 02:39:29;;;;;;;14.77;6.68;;;-3273.90;71.70;;;;;;5012718;28;20037;-80
2024/01/09 02:41:55;;;;;;;11.95;6.60;;;-3273.90;71.80;;;;;;5016434;28;20026;-80
2024/01/09 02:44:21;;;;;;;10.07;5.93;;;-3273.90;72.00;;;;;;5015345;28;20033;-81
2024/01/09 02:46:46;;;;;;;11.23;6.88;;;-3273.80;72.00;;;;;;5017296;28;20605;-80
2024/01/09 02:49:12;;;;;;;14.82;7.18;;;-3273.80;71.80;;;;;;5014911;28;20030;-80
2024/01/09 02:51:37;;;;;;;12.63;6.20;;;-3273.80;71.90;;;;;;5016283;28;20029;-79
2024/01/09 02:54:03;;;;;;;11.77;7.20;;;-3273.80;72.00;;;;;;5015347;28;20168;-80
2024/01/09 02:56:29;;;;;;;11.70;7.03;;;-3273.80;72.10;;;;;;5012693;28;20037;-80
2024/01/09 02:58:55;;;;;;;12.05;6.80;;;-3273.80;72.10;;;;;;5007701;28;20049;-80
2024/01/09 03:01:23;;;;;;;11.00;6.45;;;-3273.80;72.20;;;;;;5009192;28;20525;-79
2024/01/09 03:03:49;;;;;;;11.88;7.10;;;-3273.70;71.90;;;;;;5014191;28;20414;-80
2024/01/09 03:06:15;;;;;;;14.18;6.65;;;-3273.70;72.10;;;;;;5013697;28;20014;-80
2024/01/09 03:08:40;;;;;;;12.27;6.72;;;-3273.70;72.40;;;;;;5017142;28;20049;-79
2024/01/09 03:11:06;;;;;;;14.00;7.03;;;-3273.70;72.50;;;;;;5013706;28;20100;-80
2024/01/09 03:13:31;;;;;;;13.18;6.80;;;-3273.70;72.50;;;;;;5012865;28;20030;-80
2024/01/09 03:15:57;;;;;;;12.77;6.38;;;-3273.70;72.60;;;;;;5014430;28;20393;-80
2024/01/09 03:18:23;;;;;;;11.00;6.18;;;-3273.70;72.50;;;;;;5015378;28;20033;-80
2024/01/09 03:20:48;;;;;;;10.93;6.10;;;-3273.70;72.60;;;;;;5015547;28;20088;-81
2024/01/09 03:23:14;;;;;;;12.27;6.72;;;-3273.60;72.80;;;;;;5010024;28;20128;-80
2024/01/09 03:25:40;;;;;;;12.27;6.00;;;-3273.70;72.90;;;;;;5024750;28;20448;-80
2024/01/09 03:28:05;;;;;;;12.02;6.57;;;-3273.60;72.90;;;;;;5018737;28;20112;-80
2024/01/09 03:30:31;;;;;;;10.88;6.63;;;-3273.60;73.00;;;;;;5015242;28;20017;-81
2024/01/09 03:32:57;;;;;;;11.25;6.70;;;-3273.60;73.10;;;;;;5015703;28;20053;-80
2024/01/09 03:35:23;;;;;;;11.07;6.15;;;-3273.60;73.00;;;;;;5023980;28;20040;-80
2024/01/09 03:37:48;;;;;;;11.45;7.40;;;-3273.60;73.00;;;;;;5019012;28;20034;-80
2024/01/09 03:40:14;;;;;;;13.20;6.60;;;-3273.70;73.00;;;;;;5015464;28;20026;-80
2024/01/09 03:42:39;;;;;;;10.50;6.03;;;-3273.60;73.10;;;;;;5013636;28;20049;-80
2024/01/09 03:45:06;;;;;;;11.63;6.88;;;-3273.60;73.10;;;;;;5018819;28;20009;-81
2024/01/09 03:47:32;;;;;;;10.80;6.65;;;-3273.60;73.20;;;;;;5012907;28;20034;-81
2024/01/09 03:49:58;;;;;;;12.43;6.82;;;-3273.60;73.40;;;;;;5019650;28;20043;-80
2024/01/09 03:52:23;;;;;;;11.15;6.25;;;-3273.50;73.50;;;;;;5022329;28;20380;-80
2024/01/09 03:54:49;;;;;;;13.32;6.70;;;-3273.50;73.40;;;;;;5036824;28;20409;-80
2024/01/09 03:57:15;;;;;;;13.23;6.57;;;-3273.50;73.40;;;;;;5016183;28;20081;-78
2024/01/09 03:59:42;;;;;;;12.32;5.95;;;-3273.50;73.60;;;;;;5009345;28;21383;-80
2024/01/09 04:02:07;;;;;;;12.65;7.18;;;-3273.50;73.80;;;;;;5011449;28;20020;-79
2024/01/09 04:04:33;;;;;;;11.90;6.30;;;-3273.40;73.90;;;;;;5007635;28;20030;-81
2024/01/09 04:06:59;;;;;;;11.82;6.38;;;-3273.40;74.00;;;;;;5018997;28;20013;-79
2024/01/09 04:09:25;;;;;;;13.20;7.38;;;-3273.40;74.10;;;;;;5007915;28;20494;-79
2024/01/09 04:11:50;;;;;;;12.27;7.05;;;-3273.50;74.10;;;;;;5018833;28;20021;-79
2024/01/09 04:14:22;;;;;;;11.90;6.32;;;-3273.40;74.00;;;;;;5017419;28;20037;-79
2024/01/09 04:16:48;;;;;;;14.77;6.68;;;-3273.40;74.00;;;;;;5030345;28;20291;-80
2024/01/09 04:19:14;;;;;;;13.35;6.88;;;-3273.40;74.10;;;;;;5005530;28;20133;-79
2024/01/09 04:21:40;;;;;;;12.00;6.55;;;-3273.40;74.40;;;;;;5012770;28;20291;-78
2024/01/09 04:24:06;;;;;;;13.18;6.82;;;-3273.30;74.60;;;;;;5026413;28;20124;-80
2024/01/09 04:26:31;;;;;;;13.75;7.20;;;-3273.30;74.60;;;;;;5007256;28;20437;-79
2024/01/09 04:28:57;;;;;;;11.63;6.05;;;-3273.30;74.80;;;;;;5009832;28;20026;-78
2024/01/09 04:31:25;;;;;;;13.38;6.30;;;-3273.30;74.70;;;;;;5013377;28;20021;-80
2024/01/09 04:33:51;;;;;;;11.00;6.28;;;-3273.40;74.30;;;;;;5005802;28;20368;-78
2024/01/09 04:36:17;;;;;;;11.95;6.55;;;-3273.40;74.10;;;;;;5008771;28;20084;-79
2024/01/09 04:38:45;;;;;;;12.35;7.22;;;-3273.40;74.50;;;;;;5015536;28;20045;-79
2024/01/09 04:41:16;;;;;;;12.02;6.13;;;-3273.40;74.20;;;;;;5017182;28;20026;-79
2024/01/09 04:43:41;;;;;;;12.50;6.53;;;-3273.30;74.50;;;;;;5018375;28;20059;-79
2024/01/09 04:46:07;;;;;;;11.65;6.00;;;-3273.30;74.60;;;;;;5020227;28;20435;-79
2024/01/09 04:48:33;;;;;;;11.55;6.60;;;-3273.30;74.60;;;;;;5014005;28;20422;-79
2024/01/09 04:50:59;;;;;;;12.52;6.88;;;-3273.30;74.60;;;;;;5017126;28;20493;-79
2024/01/09 04:53:24;;;;;;;11.07;6.30;;;-3273.30;74.60;;;;;;5019922;28;20080;-79
2024/01/09 04:55:50;;;;;;;14.57;6.50;;;-3273.30;74.50;;;;;;5020493;28;20021;-79
2024/01/09 04:58:15;;;;;;;11.68;6.60;;;-3273.30;74.60;;;;;;5010078;28;20026;-79
2024/01/09 05:00:41;;;;;;;11.35;6.65;;;-3273.20;74.90;;;;;;5019249;28;20505;-80
2024/01/09 05:03:07;;;;;;;14.20;7.22;;;-3273.20;74.70;;;;;;5005651;28;20072;-81
2024/01/09 05:05:32;;;;;;;13.98;6.78;;;-3273.30;74.80;;;;;;5009973;28;20017;-79
2024/01/09 05:07:58;;;;;;;10.40;6.38;;;-3273.30;74.70;;;;;;5017724;28;20029;-80
2024/01/09 05:10:24;;;;;;;10.90;6.15;;;-3273.30;74.70;;;;;;5018209;28;20017;-80
2024/01/09 05:12:50;;;;;;;11.40;6.50;;;-3273.30;74.80;;;;;;5021191;28;20053;-79
2024/01/09 05:15:15;;;;;;;12.57;6.65;;;-3273.20;74.60;;;;;;5020120;28;20017;-78
2024/01/09 05:17:41;;;;;;;12.00;6.05;;;-3273.20;74.60;;;;;;5010154;28;20037;-79
2024/01/09 05:20:07;;;;;;;12.07;6.38;;;-3273.20;74.70;;;;;;5020148;28;20696;-79
2024/01/09 05:22:35;;;;;;;12.52;7.18;;;-3273.20;74.70;;;;;;5009167;28;20365;-79
2024/01/09 05:25:01;;;;;;;11.00;5.72;;;-3273.20;74.90;;;;;;5014712;28;20026;-80
2024/01/09 05:27:27;;;;;;;13.50;7.18;;;-3273.20;75.10;;;;;;5013890;28;20029;-79
2024/01/09 05:29:53;;;;;;;9.73;5.20;;;-3273.20;75.10;;;;;;5020481;28;20038;-79
2024/01/09 05:32:18;;;;;;;12.20;6.68;;;-3273.10;75.20;;;;;;5030036;28;20896;-79
2024/01/09 05:34:44;;;;;;;11.75;6.22;;;-3273.10;75.50;;;;;;5016879;28;20037;-79
2024/01/09 05:37:10;;;;;;;11.32;6.32;;;-3273.10;75.60;;;;;;5016436;28;20104;-79
2024/01/09 05:39:35;;;;;;;12.43;6.43;;;-3273.10;75.60;;;;;;5018387;28;20052;-79
2024/01/09 05:42:01;;;;;;;12.75;6.38;;;-3273.10;75.80;;;;;;5012678;28;20041;-79
2024/01/09 05:44:28;;;;;;;11.63;6.70;;;-3273.00;76.10;;;;;;5015099;28;20136;-80
2024/01/09 05:46:53;;;;;;;11.10;6.68;;;-3273.10;76.10;;;;;;5014608;28;20113;-79
2024/01/09 05:49:19;;;;;;;11.52;6.60;;;-3273.00;75.90;;;;;;5019684;28;20041;-79
2024/01/09 05:51:45;;;;;;;11.48;6.40;;;-3273.00;75.70;;;;;;5015114;28;20076;-78
2024/01/09 05:54:10;;;;;;;17.85;6.70;;;-3273.10;75.70;;;;;;5015550;28;20465;-79
2024/01/09 05:56:37;;;;;;;13.23;6.03;;;-3273.10;75.80;;;;;;5020124;28;20130;-80
2024/01/09 05:59:03;;;;;;;14.00;6.85;;;-3273.00;75.70;;;;;;5009058;28;20051;-79
2024/01/09 06:01:28;;;;;;;12.30;6.90;;;-3273.00;75.80;;;;;;5010318;28;20021;-79
2024/01/09 06:03:54;;;;;;;11.57;6.70;;;-3273.10;75.90;;;;;;5016820;28;20057;-78
2024/01/09 06:06:20;;;;;;;12.27;7.07;;;-3273.00;75.90;;;;;;5011823;28;20117;-79
2024/01/09 06:08:48;;;;;;;12.88;6.90;;;-3273.00;76.00;;;;;;5013540;28;20473;-79
2024/01/09 06:11:14;;;;;;;11.93;6.10;;;-3273.00;75.70;;;;;;5025995;28;20048;-80
2024/01/09 06:13:41;;;;;;;11.55;6.57;;;-3273.00;75.70;;;;;;5026497;28;20050;-79
2024/01/09 06:16:07;;;;;;;12.93;6.70;;;-3273.00;75.90;;;;;;5015246;28;20534;-80
2024/01/09 06:18:33;;;;;;;11.43;6.93;;;-3273.00;76.00;;;;;;5015755;28;20072;-79
2024/01/09 06:20:59;;;;;;;12.48;6.68;;;-3273.00;76.10;;;;;;5008682;28;20045;-80
2024/01/09 06:23:25;;;;;;;12.18;6.53;;;-3273.00;76.10;;;;;;5014879;28;20109;-80
2024/01/09 06:25:50;;;;;;;13.15;6.85;;;-3273.00;76.20;;;;;;5010329;28;20672;-81
2024/01/09 06:28:16;;;;;;;12.68;6.53;;;-3273.00;76.10;;;;;;5007078;28;20511;-80
2024/01/09 06:30:42;;;;;;;13.10;6.68;;;-3273.00;75.90;;;;;;5015407;28;20128;-78
2024/01/09 06:33:08;;;;;;;12.10;6.68;;;-3273.00;76.10;;;;;;5018972;28;20514;-79
2024/01/09 06:35:33;;;;;;;13.57;6.60;;;-3272.90;75.90;;;;;;5017320;28;20017;-78
2024/01/09 06:37:59;;;;;;;11.05;6.47;;;-3273.00;76.00;;;;;;5017138;28;20073;-79
2024/01/09 06:40:24;;;;;;;10.48;6.25;;;-3273.00;76.00;;;;;;5009108;28;20030;-79
2024/01/09 06:42:51;;;;;;;11.43;7.00;;;-3273.00;75.90;;;;;;5015798;28;20341;-79
2024/01/09 06:45:17;;;;;;;13.18;7.20;;;-3272.90;76.10;;;;;;5012789;28;20112;-80
2024/01/09 06:47:43;;;;;;;13.57;6.97;;;-3273.00;76.10;;;;;;5016161;28;20129;-79
2024/01/09 06:50:09;;;;;;;13.35;7.93;;;-3273.00;76.10;;;;;;5012562;28;20495;-80
2024/01/09 06:52:34;;;;;;;12.05;6.50;;;-3273.00;76.10;;;;;;5029671;28;20044;-80
2024/01/09 06:55:00;;;;;;;11.80;6.82;;;-3272.90;76.10;;;;;;5011174;28;20017;-79
2024/01/09 06:57:26;;;;;;;12.52;6.90;;;-3272.90;76.20;;;;;;5015639;28;20044;-79
2024/01/09 06:59:51;;;;;;;12.48;6.97;;;-3273.00;76.20;;;;;;5015792;28;20033;-79
2024/01/09 07:02:17;;;;;;;12.93;7.35;;;-3273.00;76.20;;;;;;5013117;28;20025;-79
2024/01/09 07:04:43;;;;;;;13.68;7.05;;;-3272.90;76.10;;;;;;5016575;28;20030;-79
2024/01/09 07:07:09;;;;;;;13.43;7.18;;;-3272.90;76.10;;;;;;5018205;28;20081;-80
2024/01/09 07:09:36;;;;;;;12.50;7.45;;;-3272.90;76.20;;;;;;5016235;28;20029;-80
2024/01/09 07:12:02;;;;;;;12.48;7.05;;;-3272.90;76.20;;;;;;5016541;28;20033;-79
2024/01/09 07:14:28;;;;;;;13.07;7.43;;;-3272.80;76.30;;;;;;5011393;28;20375;-79
2024/01/09 07:16:53;;;;;;;12.60;6.93;;;-3272.90;76.40;;;;;;5020937;28;20025;-80
2024/01/09 07:19:19;;;;;;;15.38;7.25;;;-3272.80;76.50;;;;;;5018829;28;20033;-78
2024/01/09 07:21:45;;;;;;;12.27;7.00;;;-3272.80;76.20;;;;;;5018406;28;20037;-79
2024/01/09 07:24:11;;;;;;;11.55;6.47;;;-3272.80;76.10;;;;;;5018794;28;20610;-79
2024/01/09 07:26:39;;;;;;;13.30;7.63;;;-3272.80;76.20;;;;;;5010790;28;20021;-79
2024/01/09 07:29:05;;;;;;;13.73;8.32;;;-3272.80;76.20;;;;;;5011611;28;20037;-78
2024/01/09 07:31:31;;;;;;;13.65;7.13;;;-3272.80;76.20;;;;;;5009461;28;20076;-79
2024/01/09 07:33:56;;;;;;;14.32;8.70;;;-3272.80;76.30;;;;;;5016817;28;20038;-79
2024/01/09 07:36:22;;;;;;;12.20;7.55;;;-3272.70;76.20;;;;;;5018269;28;20100;-79
2024/01/09 07:38:48;;;;;;;14.60;8.52;;;-3272.70;76.30;;;;;;5007960;28;20041;-77
2024/01/09 07:41:17;;;;;;;14.63;7.22;;;-3272.80;76.40;;;;;;5031162;28;20343;-77
2024/01/09 07:43:43;;;;;;;12.32;6.75;;;-3272.80;76.30;;;;;;5017151;28;20049;-77
2024/01/09 07:46:10;;;;;;;11.88;6.82;;;-3272.80;76.40;;;;;;5015099;28;20017;-77
2024/01/09 07:48:35;;;;;;;13.13;7.15;;;-3272.70;76.60;;;;;;5015415;28;20032;-77
2024/01/09 07:51:01;;;;;;;12.15;6.50;;;-3272.70;76.80;;;;;;5018153;28;20033;-77
2024/01/09 07:53:27;;;;;;;15.57;8.18;;;-3272.70;76.80;;;;;;5021510;28;20336;-77
2024/01/09 07:55:53;;;;;;;15.48;8.15;;;-3272.60;76.80;;;;;;5022349;28;20100;-78
2024/01/09 07:58:18;;;;;;;17.55;9.70;;;-3272.70;76.90;;;;;;5012182;28;20196;-77
2024/01/09 08:00:45;;;;;;;16.92;8.43;;;-3272.60;76.70;;;;;;5015585;28;20036;-77
2024/01/09 08:03:11;;;;;;;15.15;7.68;;;-3272.60;76.90;;;;;;5010799;28;20108;-77
2024/01/09 08:05:38;;;;;;;12.25;6.60;;;-3272.70;77.00;;;;;;5028033;28;20434;-77
2024/01/09 08:08:04;;;;;;;11.00;6.60;;;-3272.70;76.80;;;;;;5017267;28;20600;-77
2024/01/09 08:10:30;;;;;;;14.82;7.95;;;-3272.70;76.70;;;;;;5016548;28;20538;-77
2024/01/09 08:12:55;;;;;;;13.55;7.55;;;-3272.70;76.80;;;;;;5017518;28;20121;-78
2024/01/09 08:15:21;;;;;;;14.30;7.60;;;-3272.70;76.80;;;;;;5018135;28;20022;-78
2024/01/09 08:17:47;;;;;;;14.70;7.82;;;-3272.70;76.90;;;;;;5036696;28;20057;-79
2024/01/09 08:20:12;;;;;;;16.92;7.78;;;-3272.70;76.70;;;;;;5033884;28;20014;-77
2024/01/09 08:22:38;;;;;;;15.15;7.95;;;-3272.70;76.60;;;;;;5016933;28;20046;-78
2024/01/09 08:25:05;;;;;;;15.88;8.73;;;-3272.70;76.70;;;;;;5017655;28;20462;-77
2024/01/09 08:27:30;;;;;;;11.95;6.95;;;-3272.70;76.50;;;;;;5029949;28;20041;-77
2024/01/09 08:29:56;;;;;;;14.40;7.60;;;-3272.80;76.40;;;;;;5012824;28;20029;-77
2024/01/09 08:32:22;;;;;;;14.50;7.50;;;-3272.80;76.20;;;;;;5011636;28;20045;-77
2024/01/09 08:34:48;;;;;;;13.98;7.50;;;-3272.80;76.40;;;;;;5016887;28;20030;-78
2024/01/09 08:37:14;;;;;;;14.02;7.35;;;-3272.90;76.50;;;;;;5014919;28;20025;-77
2024/01/09 08:39:39;;;;;;;11.77;7.35;;;-3272.90;76.20;;;;;;5006318;28;20037;-77
2024/01/09 08:42:05;;;;;;;14.13;8.18;;;-3272.90;76.10;;;;;;5015793;28;20992;-76
2024/01/09 08:44:32;;;;;;;13.02;7.68;;;-3272.90;76.30;;;;;;5015915;28;20588;-76
2024/01/09 08:46:58;;;;;;;12.05;6.88;;;-3273.00;76.10;;;;;;5017801;28;20025;-76
2024/01/09 08:49:23;;;;;;;12.85;7.57;;;-3273.00;76.10;;;;;;5014555;28;20473;-75
2024/01/09 08:51:49;;;;;;;13.15;7.72;;;-3273.10;75.80;;;;;;5020389;28;20037;-76
2024/01/09 08:54:15;;;;;;;16.02;8.70;;;-3273.20;75.90;;;;;;5013173;28;20048;-76
2024/01/09 08:56:42;;;;;;;15.63;9.40;;;-3273.30;75.60;;;;;;5015842;28;20026;-75
2024/01/09 08:59:09;;;;;;;15.57;8.65;;;-3273.30;75.10;;;;;;5018000;28;20038;-74
2024/01/09 09:01:37;;;;;;;15.25;7.93;;;-3273.40;75.00;;;;;;5020275;28;20025;-76
2024/01/09 09:04:03;;;;;;;14.20;7.88;;;-3273.50;74.90;;;;;;5020636;28;20038;-76
2024/01/09 09:06:29;;;;;;;18.13;7.97;;;-3273.50;74.20;;;;;;5015104;28;20037;-74
2024/01/09 09:08:54;;;;;;;17.73;8.90;;;-3273.50;74.10;;;;;;5019749;28;20038;-74
2024/01/09 09:11:20;;;;;;;15.93;8.48;;;-3273.60;73.40;;;;;;5013812;28;20033;-75
2024/01/09 09:13:46;;;;;;;14.48;7.63;;;-3273.50;73.60;;;;;;5021076;28;20473;-76
2024/01/09 09:16:14;;;;;;;13.27;7.40;;;-3273.60;73.50;;;;;;5014213;28;20095;-78
2024/01/09 09:18:39;;;;;;;14.25;8.43;;;-3273.60;73.40;;;;;;5019570;28;20041;-75
2024/01/09 09:21:05;;;;;;;11.90;7.60;;;-3273.60;73.30;;;;;;5018360;28;20029;-78
2024/01/09 09:23:31;;;;;;;11.93;7.20;;;-3273.60;73.40;;;;;;5013111;28;20045;-78
2024/01/09 09:25:57;;;;;;;15.82;8.15;;;-3273.60;73.70;;;;;;5017982;28;20394;-79
2024/01/09 09:28:23;;;;;;;15.20;7.95;;;-3273.80;73.80;;;;;;5017212;28;20034;-79
2024/01/09 09:30:49;;;;;;;14.40;7.68;;;-3273.80;73.10;;;;;;5022839;28;23332;-78
2024/01/09 09:33:15;;;;;;;13.90;7.80;;;-3274.00;73.10;;;;;;5020817;28;20036;-78
2024/01/09 09:35:41;;;;;;;16.90;9.02;;;-3274.20;72.50;;;;;;5022241;28;20025;-78
2024/01/09 09:38:06;;;;;;;14.75;7.60;;;-3274.40;72.60;;;;;;5012311;28;20022;-78
2024/01/09 09:40:32;;;;;;;16.50;10.43;;;-3274.20;71.30;;;;;;5015043;28;20029;-78
2024/01/09 09:43:02;;;;;;;14.00;8.50;;;-3274.30;71.90;;;;;;5022196;28;20486;-78
2024/01/09 09:45:30;;;;;;;17.02;8.48;;;-3274.20;72.10;;;;;;5017925;28;20029;-78
2024/01/09 09:47:56;;;;;;;12.02;6.68;;;-3274.30;72.40;;;;;;5015513;28;20082;-78
2024/01/09 09:50:24;;;;;;;13.88;8.25;;;-3274.30;71.70;;;;;;5019896;28;20036;-79
2024/01/09 09:52:50;;;;;;;14.73;7.45;;;-3274.20;72.20;;;;;;5015436;28;20041;-79
2024/01/09 09:55:19;;;;;;;17.52;8.38;;;-3274.20;72.40;;;;;;5020486;28;20544;-77
2024/01/09 09:57:44;;;;;;;13.80;8.05;;;-3274.40;72.00;;;;;;5017871;28;20106;-77
2024/01/09 10:00:11;;;;;;;14.48;7.78;;;-3274.50;71.40;;;;;;5016561;28;20022;-76
2024/01/09 10:02:46;;;;;;;14.43;7.85;;;-3274.30;71.80;;;;;;5015712;28;20119;-79
2024/01/09 10:05:18;;;;;;;12.73;7.53;;;-3274.40;71.60;;;;;;5018108;28;20037;-81
2024/01/09 10:07:46;;;;;;;16.63;7.28;;;-3274.60;71.00;;;;;;5019691;28;20117;-76
2024/01/09 10:10:13;;;;;;;15.48;7.30;;;-3274.60;70.60;;;;;;5018033;28;20029;-76
2024/01/09 10:12:42;;;;;;;15.30;7.85;;;-3274.60;70.80;;;;;;5017672;28;20506;-76
2024/01/09 10:15:12;;;;;;;14.10;7.65;;;-3274.50;71.50;;;;;;5011845;28;20032;-76
2024/01/09 10:17:41;;;;;;;13.68;7.78;;;-3274.70;71.20;;;;;;5007506;28;20042;-77
2024/01/09 10:20:10;;;;;;;13.45;7.55;;;-3274.70;70.50;;;;;;5015879;28;20021;-77
2024/01/09 10:22:38;;;;;;;12.82;6.72;;;-3274.60;70.40;;;;;;5016496;28;20041;-78
2024/01/09 10:25:12;;;;;;;14.73;7.13;;;-3274.60;70.40;;;;;;5013426;28;20152;-77
2024/01/09 10:27:39;;;;;;;14.23;8.27;;;-3274.90;69.90;;;;;;5017584;28;20276;-75
2024/01/09 10:30:09;;;;;;;12.63;7.47;;;-3274.90;69.60;;;;;;5023443;28;20040;-76
2024/01/09 10:32:37;;;;;;;16.00;8.15;;;-3275.10;69.30;;;;;;5013905;28;20570;-76
2024/01/09 10:35:03;;;;;;;14.60;7.55;;;-3275.10;69.20;;;;;;5010225;28;20022;-76
2024/01/09 10:37:34;;;;;;;12.38;7.88;;;-3275.20;69.40;;;;;;5018698;28;20101;-75
2024/01/09 10:40:00;;;;;;;13.65;7.07;;;-3275.20;69.00;;;;;;5010775;28;20018;-78
2024/01/09 10:42:27;;;;;;;12.38;6.13;;;-3275.20;68.80;;;;;;5018406;28;20079;-77
2024/01/09 10:44:57;;;;;;;12.15;6.90;;;-3275.20;68.60;;;;;;5015610;28;20017;-80
2024/01/09 10:47:24;;;;;;;14.13;7.68;;;-3275.30;68.50;;;;;;5029769;28;20032;-75
2024/01/09 10:49:52;;;;;;;14.10;7.47;;;-3275.50;67.90;;;;;;5036096;28;20025;-76
2024/01/09 10:52:19;;;;;;;11.90;6.78;;;-3275.30;67.70;;;;;;5031897;28;20087;-77
2024/01/09 10:54:46;;;;;;;13.48;8.30;;;-3275.30;67.70;;;;;;5020437;28;20014;-75
2024/01/09 10:57:16;;;;;;;13.20;7.18;;;-3275.30;68.40;;;;;;5019631;28;20071;-77
2024/01/09 10:59:44;;;;;;;14.55;8.07;;;-3275.50;68.40;;;;;;5024408;28;20301;-76
2024/01/09 11:02:16;;;;;;;15.32;7.30;;;-3275.60;67.50;;;;;;5028959;28;20036;-76
2024/01/09 11:04:43;;;;;;;12.23;6.70;;;-3275.50;67.00;;;;;;5027023;28;20030;-77
2024/01/09 11:07:15;;;;;;;14.10;7.22;;;-3275.40;67.00;;;;;;5011503;28;20033;-74
2024/01/09 11:09:46;;;;;;;12.90;7.55;;;-3275.50;67.00;;;;;;5015152;28;20060;-77
2024/01/09 11:12:18;;;;;;;14.13;8.23;;;-3275.80;66.60;;;;;;5013661;28;20064;-77
2024/01/09 11:14:50;;;;;;;13.98;6.78;;;-3275.80;65.80;;;;;;5014451;28;20032;-77
2024/01/09 11:17:17;;;;;;;13.75;7.03;;;-3275.70;66.00;;;;;;5015942;28;20025;-78
2024/01/09 11:19:43;;;;;;;11.68;6.70;;;-3275.90;65.70;;;;;;5010064;28;20071;-79
2024/01/09 11:22:13;;;;;;;12.35;6.95;;;-3276.00;65.60;;;;;;5010965;28;20057;-76
2024/01/09 11:24:39;;;;;;;14.27;7.70;;;-3276.00;65.10;;;;;;5016343;28;20061;-75
2024/01/09 11:27:17;;;;;;;11.65;6.38;;;-3276.10;65.10;;;;;;5016180;28;20045;-76
2024/01/09 11:29:53;;;;;;;11.18;7.30;;;-3276.00;65.20;;;;;;5015230;28;20033;-76
2024/01/09 11:32:27;;;;;;;11.70;6.25;;;-3276.00;64.70;;;;;;5009172;28;20100;-76
2024/01/09 11:35:10;;;;;;;12.80;7.50;;;-3276.00;64.80;;;;;;5005596;28;20091;-75
2024/01/09 11:37:37;;;;;;;10.45;6.35;;;-3276.00;65.30;;;;;;5013553;28;20051;-76
2024/01/09 11:40:03;;;;;;;11.13;5.70;;;-3276.00;64.30;;;;;;5009896;28;20026;-77
2024/01/09 11:42:30;;;;;;;14.10;7.07;;;-3276.00;64.20;;;;;;5015368;28;20034;-76
2024/01/09 11:44:55;;;;;;;13.75;6.65;;;-3275.90;64.00;;;;;;5008824;28;20018;-75
2024/01/09 11:47:21;;;;;;;13.05;7.80;;;-3276.10;64.60;;;;;;5015911;28;20036;-75
2024/01/09 11:49:47;;;;;;;11.25;6.53;;;-3276.20;64.10;;;;;;5012119;28;20021;-75
2024/01/09 11:52:13;;;;;;;12.90;7.40;;;-3276.30;63.70;;;;;;5020493;28;20021;-77
2024/01/09 11:54:39;;;;;;;13.77;6.78;;;-3276.60;63.60;;;;;;5018316;28;20506;-77
2024/01/09 11:57:07;;;;;;;12.70;6.65;;;-3276.40;62.50;;;;;;5025026;28;20497;-76
2024/01/09 11:59:33;;;;;;;15.07;7.40;;;-3276.50;62.90;;;;;;5016965;28;20079;-76
2024/01/09 12:01:59;;;;;;;12.25;7.07;;;-3276.40;62.90;;;;;;5008725;28;20034;-75
2024/01/09 12:04:24;;;;;;;12.32;7.10;;;-3276.30;63.20;;;;;;5020305;28;20421;-74